createdAt,value
2017-11-14T00:01:29.545Z,1.10
2017-11-14T00:03:57.108Z,1.10
2017-11-14T00:06:24.720Z,1.10
2017-11-14T00:08:52.323Z,1.00
2017-11-14T00:11:19.907Z,1.00
2017-11-14T00:13:48.236Z,1.00
2017-11-14T00:16:15.832Z,0.90
2017-11-14T00:18:43.415Z,0.90
2017-11-14T00:21:11.739Z,0.90
2017-11-14T00:23:39.322Z,0.90
2017-11-14T00:26:06.878Z,0.90
2017-11-14T00:28:34.492Z,0.80
2017-11-14T00:31:02.835Z,0.80
2017-11-14T00:33:30.391Z,0.80
2017-11-14T00:35:58.741Z,0.80
2017-11-14T00:38:26.319Z,0.80
2017-11-14T00:40:53.939Z,0.80
2017-11-14T00:43:22.281Z,0.80
2017-11-14T00:45:49.844Z,0.80
2017-11-14T00:48:17.432Z,0.80
2017-11-14T00:50:45.754Z,0.80
2017-11-14T00:53:13.341Z,0.80
2017-11-14T00:55:40.911Z,0.80
2017-11-14T00:58:08.490Z,0.80
2017-11-14T01:00:36.074Z,0.80
2017-11-14T01:03:04.418Z,0.90
2017-11-14T01:05:32.042Z,0.90
2017-11-14T01:07:59.622Z,0.90
2017-11-14T01:10:27.183Z,1.00
2017-11-14T01:12:54.777Z,1.00
2017-11-14T01:15:22.370Z,1.10
2017-11-14T01:17:50.735Z,1.10
2017-11-14T01:20:19.065Z,1.10
2017-11-14T01:22:46.636Z,1.10
2017-11-14T01:25:14.229Z,1.20
2017-11-14T01:27:41.802Z,1.20
2017-11-14T01:30:10.191Z,1.20
2017-11-14T01:32:38.550Z,1.20
2017-11-14T01:35:06.141Z,1.10
2017-11-14T01:37:33.736Z,1.20
2017-11-14T01:40:01.298Z,1.10
2017-11-14T01:42:28.895Z,1.10
2017-11-14T01:44:56.486Z,1.10
2017-11-14T01:47:24.843Z,1.00
2017-11-14T01:49:52.428Z,1.00
2017-11-14T01:52:20.772Z,1.00
2017-11-14T01:54:48.362Z,1.00
2017-11-14T01:57:16.697Z,0.90
2017-11-14T01:59:45.027Z,0.90
2017-11-14T02:02:13.397Z,0.80
2017-11-14T02:04:41.740Z,0.80
2017-11-14T02:07:09.327Z,0.80
2017-11-14T02:09:36.890Z,0.80
2017-11-14T02:12:04.497Z,0.80
2017-11-14T02:14:32.080Z,0.70
2017-11-14T02:16:59.663Z,0.70
2017-11-14T02:19:27.265Z,0.70
2017-11-14T02:21:55.589Z,0.70
2017-11-14T02:24:23.252Z,0.70
2017-11-14T02:26:56.571Z,0.70
2017-11-14T02:29:24.181Z,0.70
2017-11-14T02:31:51.756Z,0.70
2017-11-14T02:34:19.339Z,0.70
2017-11-14T02:36:46.929Z,0.70
2017-11-14T02:39:14.508Z,0.70
2017-11-14T02:41:42.873Z,0.70
2017-11-14T02:44:10.493Z,0.70
2017-11-14T02:46:38.116Z,0.80
2017-11-14T02:49:06.469Z,0.90
2017-11-14T02:51:34.067Z,0.80
2017-11-14T02:54:02.720Z,0.90
2017-11-14T02:56:30.358Z,0.90
2017-11-14T02:58:57.973Z,0.90
2017-11-14T03:01:26.346Z,1.00
2017-11-14T03:03:53.912Z,1.00
2017-11-14T03:06:22.302Z,1.00
2017-11-14T03:08:50.646Z,1.10
2017-11-14T03:11:18.223Z,1.00
2017-11-14T03:13:45.846Z,1.10
2017-11-14T03:16:13.424Z,1.10
2017-11-14T03:18:41.072Z,1.20
2017-11-14T03:21:08.648Z,1.20
2017-11-14T03:23:36.205Z,1.20
2017-11-14T03:26:03.822Z,1.20
2017-11-14T03:28:32.169Z,1.30
2017-11-14T03:30:59.792Z,1.20
2017-11-14T03:33:27.371Z,1.30
2017-11-14T03:35:54.948Z,1.30
2017-11-14T03:38:22.556Z,1.30
2017-11-14T03:40:50.893Z,1.30
2017-11-14T03:43:18.488Z,1.30
2017-11-14T03:45:46.823Z,1.40
2017-11-14T03:48:14.380Z,1.30
2017-11-14T03:50:41.987Z,1.40
2017-11-14T03:53:10.347Z,1.40
2017-11-14T03:55:37.938Z,1.40
2017-11-14T03:58:06.280Z,1.40
2017-11-14T04:00:33.850Z,1.40
2017-11-14T04:03:01.426Z,1.40
2017-11-14T04:05:28.991Z,1.30
2017-11-14T04:07:56.601Z,1.30
2017-11-14T04:10:24.179Z,1.20
2017-11-14T04:12:51.760Z,1.10
2017-11-14T04:15:19.359Z,1.10
2017-11-14T04:17:47.705Z,1.00
2017-11-14T04:20:15.320Z,1.00
2017-11-14T04:22:42.881Z,1.00
2017-11-14T04:25:10.453Z,1.00
2017-11-14T04:27:38.047Z,0.90
2017-11-14T04:30:05.635Z,0.90
2017-11-14T04:32:34.010Z,0.90
2017-11-14T04:35:01.585Z,0.90
2017-11-14T04:37:29.966Z,0.90
2017-11-14T04:39:58.328Z,1.00
2017-11-14T04:42:25.896Z,1.00
2017-11-14T04:44:53.504Z,0.90
2017-11-14T04:47:21.078Z,0.90
2017-11-14T04:49:48.644Z,0.90
2017-11-14T04:52:16.240Z,1.00
2017-11-14T04:54:43.822Z,1.00
2017-11-14T04:57:12.217Z,1.00
2017-11-14T04:59:39.799Z,1.00
2017-11-14T05:02:07.368Z,1.10
2017-11-14T05:04:34.956Z,1.10
2017-11-14T05:07:02.516Z,1.10
2017-11-14T05:09:30.118Z,1.10
2017-11-14T05:11:58.452Z,1.30
2017-11-14T05:14:26.017Z,1.30
2017-11-14T05:16:53.629Z,1.40
2017-11-14T05:19:21.954Z,1.40
2017-11-14T05:21:49.574Z,1.40
2017-11-14T05:24:17.148Z,1.40
2017-11-14T05:26:44.741Z,1.40
2017-11-14T05:29:13.112Z,1.50
2017-11-14T05:31:40.705Z,1.50
2017-11-14T05:34:08.323Z,1.50
2017-11-14T05:36:35.914Z,1.50
2017-11-14T05:39:03.505Z,1.50
2017-11-14T05:41:31.104Z,1.50
2017-11-14T05:43:58.696Z,1.60
2017-11-14T05:46:26.300Z,1.60
2017-11-14T05:48:54.641Z,1.80
2017-11-14T05:51:22.233Z,1.70
2017-11-14T05:53:50.627Z,1.70
2017-11-14T05:56:18.964Z,1.70
2017-11-14T05:58:47.309Z,1.70
2017-11-14T06:01:14.866Z,1.70
2017-11-14T06:03:42.455Z,1.60
2017-11-14T06:06:10.018Z,1.70
2017-11-14T06:08:37.591Z,1.70
2017-11-14T06:11:05.188Z,1.70
2017-11-14T06:13:32.804Z,1.80
2017-11-14T06:16:00.373Z,1.90
2017-11-14T06:18:27.957Z,2.00
2017-11-14T06:20:55.542Z,2.00
2017-11-14T06:23:23.884Z,2.10
2017-11-14T06:25:51.495Z,2.10
2017-11-14T06:28:19.826Z,2.30
2017-11-14T06:30:47.415Z,2.20
2017-11-14T06:33:15.012Z,2.30
2017-11-14T06:35:42.601Z,2.30
2017-11-14T06:38:10.212Z,2.40
2017-11-14T06:40:37.781Z,2.40
2017-11-14T06:43:06.135Z,2.50
2017-11-14T06:45:33.717Z,2.50
2017-11-14T06:48:01.349Z,2.50
2017-11-14T06:50:29.678Z,2.60
2017-11-14T06:52:57.254Z,2.60
2017-11-14T06:55:24.838Z,2.60
2017-11-14T06:57:52.410Z,2.60
2017-11-14T07:00:20.027Z,2.70
2017-11-14T07:02:48.369Z,2.70
2017-11-14T07:05:15.972Z,2.70
2017-11-14T07:07:44.309Z,2.80
2017-11-14T07:10:11.935Z,2.80
2017-11-14T07:12:39.523Z,2.80
2017-11-14T07:15:07.092Z,2.80
2017-11-14T07:17:34.706Z,2.80
2017-11-14T07:20:02.273Z,2.90
2017-11-14T07:22:29.886Z,2.90
2017-11-14T07:24:57.442Z,3.00
2017-11-14T07:27:25.048Z,3.10
2017-11-14T07:29:53.390Z,3.20
2017-11-14T07:32:20.993Z,3.20
2017-11-14T07:34:49.367Z,3.40
2017-11-14T07:37:17.711Z,3.40
2017-11-14T07:39:45.326Z,3.40
2017-11-14T07:42:12.903Z,3.50
2017-11-14T07:44:40.503Z,3.50
2017-11-14T07:47:08.116Z,3.60
2017-11-14T07:49:35.688Z,3.70
2017-11-14T07:52:03.285Z,3.70
2017-11-14T07:54:30.860Z,3.80
2017-11-14T07:56:58.451Z,3.80
2017-11-14T07:59:26.018Z,3.90
2017-11-14T08:01:53.606Z,3.90
2017-11-14T08:04:21.190Z,4.00
2017-11-14T08:06:48.745Z,4.10
2017-11-14T08:09:16.336Z,4.10
2017-11-14T08:11:43.910Z,4.20
2017-11-14T08:14:12.258Z,4.30
2017-11-14T08:16:39.875Z,4.30
2017-11-14T08:19:07.479Z,4.30
2017-11-14T08:21:35.086Z,4.30
2017-11-14T08:24:03.410Z,4.30
2017-11-14T08:26:31.022Z,4.30
2017-11-14T08:28:59.357Z,4.40
2017-11-14T08:31:26.978Z,4.40
2017-11-14T08:33:55.321Z,4.40
2017-11-14T08:36:22.938Z,4.40
2017-11-14T08:38:50.511Z,4.50
2017-11-14T08:41:18.128Z,4.50
2017-11-14T08:43:45.708Z,4.50
2017-11-14T08:46:14.108Z,4.50
2017-11-14T08:48:41.707Z,4.40
2017-11-14T08:51:09.327Z,4.50
2017-11-14T08:53:36.983Z,4.50
2017-11-14T08:56:05.372Z,4.50
2017-11-14T08:58:33.041Z,4.50
2017-11-14T09:01:00.652Z,4.50
2017-11-14T09:03:28.255Z,4.50
2017-11-14T09:05:55.885Z,4.60
2017-11-14T09:08:23.470Z,4.60
2017-11-14T09:10:51.899Z,4.80
2017-11-14T09:13:19.472Z,4.80
2017-11-14T09:15:47.057Z,4.90
2017-11-14T09:18:14.658Z,5.00
2017-11-14T09:20:42.221Z,5.10
2017-11-14T09:23:09.805Z,5.20
2017-11-14T09:25:37.384Z,5.50
2017-11-14T09:28:05.011Z,5.70
2017-11-14T09:30:32.581Z,5.80
2017-11-14T09:33:00.203Z,5.90
2017-11-14T09:35:28.567Z,5.80
2017-11-14T09:37:56.134Z,5.80
2017-11-14T09:40:23.742Z,5.90
2017-11-14T09:42:51.327Z,6.10
2017-11-14T09:45:18.927Z,6.40
2017-11-14T09:47:46.528Z,6.60
2017-11-14T09:50:14.132Z,6.80
2017-11-14T09:52:41.702Z,6.90
2017-11-14T09:55:09.312Z,7.00
2017-11-14T09:57:36.916Z,6.90
2017-11-14T10:00:04.531Z,6.90
2017-11-14T10:02:32.094Z,6.80
2017-11-14T10:04:59.695Z,6.80
2017-11-14T10:07:27.278Z,6.70
2017-11-14T10:09:54.844Z,6.70
2017-11-14T10:12:22.452Z,6.60
2017-11-14T10:14:50.041Z,6.70
2017-11-14T10:17:17.647Z,6.70
2017-11-14T10:19:45.993Z,6.90
2017-11-14T10:22:13.612Z,6.90
2017-11-14T10:24:41.265Z,7.00
2017-11-14T10:27:09.633Z,6.90
2017-11-14T10:29:37.201Z,6.90
2017-11-14T10:32:05.570Z,7.00
2017-11-14T10:34:33.145Z,7.00
2017-11-14T10:37:01.498Z,6.90
2017-11-14T10:39:29.113Z,6.90
2017-11-14T10:41:56.684Z,7.00
2017-11-14T10:44:24.281Z,7.00
2017-11-14T10:46:51.856Z,7.00
2017-11-14T10:49:19.453Z,7.00
2017-11-14T10:51:47.782Z,7.00
2017-11-14T10:54:15.363Z,7.00
2017-11-14T10:56:42.948Z,6.90
2017-11-14T10:59:11.289Z,6.80
2017-11-14T11:01:38.929Z,6.80
2017-11-14T11:04:06.534Z,6.80
2017-11-14T11:06:34.104Z,6.80
2017-11-14T11:09:02.483Z,7.00
2017-11-14T11:11:30.840Z,7.00
2017-11-14T11:13:58.435Z,7.00
2017-11-14T11:16:36.725Z,7.10
2017-11-14T11:19:04.305Z,7.10
2017-11-14T11:21:32.665Z,7.20
2017-11-14T11:24:00.263Z,7.20
2017-11-14T11:26:28.621Z,7.40
2017-11-14T11:28:56.188Z,7.40
2017-11-14T11:31:24.550Z,7.70
2017-11-14T11:33:52.185Z,7.60
2017-11-14T11:36:19.787Z,7.80
2017-11-14T11:38:47.364Z,8.00
2017-11-14T11:41:15.710Z,8.30
2017-11-14T11:43:43.326Z,8.30
2017-11-14T11:46:10.918Z,8.40
2017-11-14T11:48:38.544Z,8.30
2017-11-14T11:51:06.124Z,8.10
2017-11-14T11:53:33.693Z,8.10
2017-11-14T11:56:01.278Z,8.10
2017-11-14T11:58:29.738Z,8.10
2017-11-14T12:00:57.335Z,8.20
2017-11-14T12:03:24.915Z,8.20
2017-11-14T12:05:52.491Z,8.20
2017-11-14T12:08:20.856Z,8.40
2017-11-14T12:10:48.432Z,8.40
2017-11-14T12:13:16.811Z,8.60
2017-11-14T12:15:45.163Z,8.60
2017-11-14T12:18:12.779Z,8.60
2017-11-14T12:20:40.372Z,8.70
2017-11-14T12:23:07.948Z,8.70
2017-11-14T12:25:35.560Z,8.70
2017-11-14T12:28:03.172Z,8.70
2017-11-14T12:30:30.730Z,8.70
2017-11-14T12:32:58.330Z,8.70
2017-11-14T12:35:26.686Z,8.70
2017-11-14T12:37:54.328Z,8.70
2017-11-14T12:40:22.149Z,8.70
2017-11-14T12:42:50.483Z,8.70
2017-11-14T12:45:18.085Z,8.70
2017-11-14T12:47:46.435Z,8.60
2017-11-14T12:50:14.179Z,8.60
2017-11-14T12:52:41.774Z,8.60
2017-11-14T12:55:09.345Z,8.50
2017-11-14T12:57:37.003Z,8.50
2017-11-14T13:00:04.611Z,8.50
2017-11-14T13:02:32.215Z,8.50
2017-11-14T13:04:59.776Z,8.50
2017-11-14T13:07:27.343Z,8.50
2017-11-14T13:09:54.960Z,8.40
2017-11-14T13:12:22.513Z,8.40
2017-11-14T13:14:50.131Z,8.40
2017-11-14T13:17:17.708Z,8.40
2017-11-14T13:19:45.284Z,8.50
2017-11-14T13:22:13.651Z,8.50
2017-11-14T13:24:41.977Z,8.50
2017-11-14T13:27:09.566Z,8.50
2017-11-14T13:29:37.147Z,8.40
2017-11-14T13:32:04.798Z,8.40
2017-11-14T13:34:32.389Z,8.30
2017-11-14T13:37:00.729Z,8.30
2017-11-14T13:39:28.336Z,8.30
2017-11-14T13:41:56.686Z,8.30
2017-11-14T13:44:24.301Z,8.30
2017-11-14T13:46:51.900Z,8.30
2017-11-14T13:49:20.233Z,8.30
2017-11-14T13:51:47.863Z,8.30
2017-11-14T13:54:15.430Z,8.20
2017-11-14T13:56:43.012Z,8.20
2017-11-14T13:59:11.355Z,8.20
2017-11-14T14:01:38.910Z,8.20
2017-11-14T14:04:06.502Z,8.20
2017-11-14T14:06:34.098Z,8.20
2017-11-14T14:09:01.684Z,8.10
2017-11-14T14:11:29.266Z,8.10
2017-11-14T14:13:56.834Z,8.10
2017-11-14T14:16:24.457Z,8.10
2017-11-14T14:18:52.036Z,8.10
2017-11-14T14:21:19.623Z,8.10
2017-11-14T14:23:47.256Z,8.10
2017-11-14T14:26:14.828Z,8.10
2017-11-14T14:28:42.432Z,8.10
2017-11-14T14:31:10.781Z,8.10
2017-11-14T14:33:38.376Z,8.00
2017-11-14T14:36:06.745Z,8.00
2017-11-14T14:38:34.303Z,8.00
2017-11-14T14:41:01.905Z,8.00
2017-11-14T14:43:29.487Z,8.00
2017-11-14T14:45:57.068Z,8.00
2017-11-14T14:48:24.658Z,8.00
2017-11-14T14:50:52.254Z,8.00
2017-11-14T14:53:19.871Z,8.00
2017-11-14T14:55:47.452Z,8.00
2017-11-14T14:58:15.821Z,8.00
2017-11-14T15:00:43.406Z,8.00
2017-11-14T15:03:11.781Z,8.00
2017-11-14T15:05:40.118Z,7.90
2017-11-14T15:08:07.702Z,7.90
2017-11-14T15:10:35.272Z,7.90
2017-11-14T15:13:03.644Z,7.90
2017-11-14T15:15:31.212Z,7.80
2017-11-14T15:17:58.802Z,7.80
2017-11-14T15:20:27.147Z,7.80
2017-11-14T15:22:54.802Z,7.80
2017-11-14T15:25:22.397Z,7.80
2017-11-14T15:27:50.025Z,7.80
2017-11-14T15:30:17.651Z,7.80
2017-11-14T15:32:45.243Z,7.70
2017-11-14T15:35:12.866Z,7.70
2017-11-14T15:37:40.444Z,7.70
2017-11-14T15:40:08.023Z,7.70
2017-11-14T15:42:35.630Z,7.70
2017-11-14T15:45:03.979Z,7.70
2017-11-14T15:47:31.601Z,7.70
2017-11-14T15:49:59.172Z,7.70
2017-11-14T15:52:26.745Z,7.60
2017-11-14T15:54:54.334Z,7.60
2017-11-14T15:57:22.653Z,7.70
2017-11-14T15:59:51.055Z,7.70
2017-11-14T16:02:18.641Z,7.70
2017-11-14T16:04:46.214Z,7.70
2017-11-14T16:07:13.810Z,7.70
2017-11-14T16:09:42.165Z,7.70
2017-11-14T16:12:09.772Z,7.70
2017-11-14T16:14:37.389Z,7.70
2017-11-14T16:17:04.954Z,7.70
2017-11-14T16:19:32.548Z,7.80
2017-11-14T16:22:00.911Z,7.80
2017-11-14T16:24:28.544Z,7.80
2017-11-14T16:26:56.115Z,7.90
2017-11-14T16:29:23.713Z,7.80
2017-11-14T16:31:52.090Z,7.90
2017-11-14T16:34:20.914Z,7.90
2017-11-14T16:36:48.514Z,7.90
2017-11-14T16:39:16.085Z,7.90
2017-11-14T16:41:43.706Z,7.90
2017-11-14T16:44:11.301Z,7.90
2017-11-14T16:46:38.895Z,7.90
2017-11-14T16:49:07.260Z,7.90
2017-11-14T16:51:34.872Z,7.90
2017-11-14T16:54:02.461Z,7.80
2017-11-14T16:56:30.087Z,7.80
2017-11-14T16:58:57.659Z,7.80
2017-11-14T17:01:25.235Z,7.80
2017-11-14T17:03:52.845Z,7.80
2017-11-14T17:06:20.439Z,7.80
2017-11-14T17:08:48.036Z,7.80
2017-11-14T17:11:15.694Z,7.80
2017-11-14T17:13:43.296Z,7.80
2017-11-14T17:16:10.868Z,7.80
2017-11-14T17:18:39.239Z,7.80
2017-11-14T17:21:07.566Z,7.80
2017-11-14T17:23:35.168Z,7.80
2017-11-14T17:26:02.768Z,7.80
2017-11-14T17:28:31.117Z,7.80
2017-11-14T17:30:58.719Z,7.80
2017-11-14T17:33:26.309Z,7.70
2017-11-14T17:35:53.878Z,7.80
2017-11-14T17:38:21.482Z,7.80
2017-11-14T17:40:49.834Z,7.80
2017-11-14T17:43:17.423Z,7.80
2017-11-14T17:45:45.769Z,7.70
2017-11-14T17:48:13.384Z,7.70
2017-11-14T17:50:41.720Z,7.60
2017-11-14T17:53:09.329Z,7.60
2017-11-14T17:55:36.921Z,7.60
2017-11-14T17:58:04.541Z,7.60
2017-11-14T18:00:32.881Z,7.50
2017-11-14T18:03:00.473Z,7.50
2017-11-14T18:05:28.092Z,7.50
2017-11-14T18:07:56.339Z,7.40
2017-11-14T18:10:23.948Z,7.50
2017-11-14T18:12:51.538Z,7.40
2017-11-14T18:15:19.149Z,7.30
2017-11-14T18:17:46.729Z,7.30
2017-11-14T18:20:14.287Z,7.30
2017-11-14T18:22:41.923Z,7.30
2017-11-14T18:25:09.505Z,7.30
2017-11-14T18:27:37.082Z,7.30
2017-11-14T18:30:04.681Z,7.40
2017-11-14T18:32:33.029Z,7.30
2017-11-14T18:35:00.640Z,7.30
2017-11-14T18:37:28.983Z,7.30
2017-11-14T18:39:58.525Z,7.30
2017-11-14T18:42:26.185Z,7.30
2017-11-14T18:44:54.564Z,7.30
2017-11-14T18:47:23.084Z,7.20
2017-11-14T18:49:50.796Z,7.20
2017-11-14T18:52:19.193Z,7.20
2017-11-14T18:54:47.539Z,7.20
2017-11-14T18:57:15.106Z,7.10
2017-11-14T18:59:44.594Z,7.10
2017-11-14T19:02:12.358Z,7.10
2017-11-14T19:04:39.930Z,7.10
2017-11-14T19:07:07.608Z,7.20
2017-11-14T19:09:35.293Z,7.20
2017-11-14T19:12:03.664Z,7.20
2017-11-14T19:14:31.307Z,7.20
2017-11-14T19:16:58.903Z,7.10
2017-11-14T19:19:27.244Z,7.20
2017-11-14T19:21:54.874Z,7.20
2017-11-14T19:24:22.481Z,7.20
2017-11-14T19:26:50.138Z,7.20
2017-11-14T19:29:17.749Z,7.20
2017-11-14T19:31:45.458Z,7.20
2017-11-14T19:34:13.120Z,7.20
2017-11-14T19:36:40.711Z,7.20
2017-11-14T19:39:08.333Z,7.10
2017-11-14T19:41:36.107Z,7.10
2017-11-14T19:44:03.733Z,7.10
2017-11-14T19:46:32.168Z,7.10
2017-11-14T19:48:59.782Z,7.10
2017-11-14T19:51:27.408Z,7.20
2017-11-14T19:53:55.080Z,7.20
2017-11-14T19:56:23.676Z,7.20
2017-11-14T19:58:51.328Z,7.20
2017-11-14T20:01:19.774Z,7.20
2017-11-14T20:03:47.560Z,7.20
2017-11-14T20:06:15.299Z,7.20
2017-11-14T20:08:43.767Z,7.20
2017-11-14T20:11:11.385Z,7.20
2017-11-14T20:13:38.957Z,7.10
2017-11-14T20:16:06.557Z,7.20
2017-11-14T20:18:34.935Z,7.10
2017-11-14T20:21:02.637Z,7.10
2017-11-14T20:23:30.330Z,7.10
2017-11-14T20:25:58.811Z,7.10
2017-11-14T20:28:27.222Z,7.10
2017-11-14T20:30:54.960Z,7.10
2017-11-14T20:33:23.421Z,7.10
2017-11-14T20:35:51.079Z,7.10
2017-11-14T20:38:18.761Z,7.20
2017-11-14T20:40:46.454Z,7.10
2017-11-14T20:43:14.055Z,7.10
2017-11-14T20:45:41.706Z,7.10
2017-11-14T20:48:09.387Z,7.10
2017-11-14T20:50:37.102Z,7.20
2017-11-14T20:53:05.563Z,7.20
2017-11-14T20:55:33.314Z,7.20
2017-11-14T20:58:01.136Z,7.10
2017-11-14T21:00:28.870Z,7.10
2017-11-14T21:02:57.463Z,7.10
2017-11-14T21:05:25.204Z,7.10
2017-11-14T21:07:52.830Z,7.10
2017-11-14T21:10:20.457Z,7.00
2017-11-14T21:12:48.169Z,7.00
2017-11-14T21:15:15.803Z,7.00
2017-11-14T21:17:44.364Z,7.10
2017-11-14T21:20:12.749Z,7.00
2017-11-14T21:22:40.381Z,7.00
2017-11-14T21:25:07.975Z,7.10
2017-11-14T21:27:35.577Z,7.10
2017-11-14T21:30:03.166Z,7.00
2017-11-14T21:32:30.784Z,7.10
2017-11-14T21:34:59.146Z,7.10
2017-11-14T21:37:26.710Z,7.10
2017-11-14T21:39:54.317Z,7.10
2017-11-14T21:42:21.902Z,7.10
2017-11-14T21:44:50.249Z,7.10
2017-11-14T21:47:17.868Z,7.10
2017-11-14T21:49:45.462Z,7.10
2017-11-14T21:52:13.819Z,7.10
2017-11-14T21:54:41.398Z,7.10
2017-11-14T21:57:09.745Z,7.10
2017-11-14T21:59:37.603Z,7.10
2017-11-14T22:02:05.205Z,7.10
2017-11-14T22:04:33.538Z,7.10
2017-11-14T22:07:01.146Z,7.10
2017-11-14T22:09:29.478Z,7.10
2017-11-14T22:11:57.100Z,7.00
2017-11-14T22:14:25.444Z,7.10
2017-11-14T22:16:53.002Z,7.10
2017-11-14T22:19:20.595Z,7.10
2017-11-14T22:21:48.930Z,7.10
2017-11-14T22:24:16.544Z,7.10
2017-11-14T22:26:44.135Z,7.10
2017-11-14T22:29:11.726Z,7.10
2017-11-14T22:31:39.338Z,7.10
2017-11-14T22:34:07.686Z,7.10
2017-11-14T22:36:35.290Z,7.10
2017-11-14T22:39:02.865Z,7.20
2017-11-14T22:41:30.447Z,7.20
2017-11-14T22:43:58.073Z,7.20
2017-11-14T22:46:25.658Z,7.20
2017-11-14T22:48:53.264Z,7.10
2017-11-14T22:51:20.867Z,7.10
2017-11-14T22:53:48.463Z,7.10
2017-11-14T22:56:16.071Z,7.10
2017-11-14T22:58:44.416Z,7.10
2017-11-14T23:01:12.037Z,7.10
2017-11-14T23:03:39.634Z,7.10
2017-11-14T23:06:07.203Z,7.10
2017-11-14T23:08:34.805Z,7.20
2017-11-14T23:11:03.138Z,7.10
2017-11-14T23:13:30.738Z,7.10
2017-11-14T23:15:59.084Z,7.10
2017-11-14T23:18:26.685Z,7.10
2017-11-14T23:20:55.055Z,7.10
2017-11-14T23:23:22.640Z,7.10
2017-11-14T23:25:51.006Z,7.20
2017-11-14T23:28:19.357Z,7.20
2017-11-14T23:30:46.937Z,7.20
2017-11-14T23:33:14.560Z,7.20
2017-11-14T23:35:42.147Z,7.20
2017-11-14T23:38:09.756Z,7.20
2017-11-14T23:40:37.319Z,7.20
2017-11-14T23:43:04.921Z,7.10
2017-11-14T23:45:32.503Z,7.10
2017-11-14T23:48:00.120Z,7.20
2017-11-14T23:50:27.705Z,7.20
2017-11-14T23:52:55.266Z,7.20
2017-11-14T23:55:22.852Z,7.20
2017-11-14T23:57:50.428Z,7.20
